Relevés horaires Semmerzake (Belgique)


Relevés horaires à Semmerzake - Mardi 02 Juin 2020
Heure UTC1 Température [°C] Vent [km/h] Hum. [%] Pres.4 [hPa] Visi. [Km] Nébu. [octa] Préc.5 [mm] Cond.
2m. Res. Ros. Dir.2 Vit. Moy. Raf.3
23:00 14.2 14.2 10.2 NNO 1.9 -- 3.7 77 1012.3(-1.3/3h) 17 -- -- --
22:00 15.4 15.4 10.0 NNO 1.9 -- 5.6 70 1013(-1.0/3h) 19 -- -- --
21:00 16.9 16.9 8.9 N 3.7 -- 11.1 59 1013.3(-0.8/3h) 20 -- -- --
20:00 18.6 18.6 8.5 NNO 1.9 -- 7.4 52 1013.7(-0.8/3h) 20 -- -- --
19:00 20.2 20.2 9.0 NNO 5.6 -- 11.1 48 1013.8(-1.0/3h) 20 -- -- --
18:00 22.6 22.6 8.1 NNO 5.6 -- 14.8 39 1014.2(-1.2/3h) 20 -- -- --
17:00 23.6 23.6 8.3 NNO 7.4 -- 13.0 38 1014.5(-1.2/3h) 20 -- -- --
16:00 24.7 24.7 8.2 NNO 7.4 -- 14.8 35 1014.8(-1.2/3h) 20 -- -- --
15:00 24.6 24.6 8.6 NNO 9.3 -- 14.8 36 1015.3(-1.2/3h) 20 -- -- --
14:00 25.7 25.7 8.3 NNO 5.6 -- 13.0 33 1015.7(-1.4/3h) 20 -- -- --
13:00 26.5 26.5 9.1 NO 3.7 -- 13.0 33 1016.1(-1.5/3h) 20 -- -- --
12:00 26.6 26.6 8.3 NNO 5.6 -- 11.1 31 1016.7(-1.4/3h) 20 -- -- --
11:00 25.6 25.6 6.7 N 3.7 -- 9.3 30 1017.2(-1.3/3h) 20 -- -- --
10:00 24.2 24.2 6.3 NO 3.7 -- 7.4 32 1017.7(-0.9/3h) 20 -- -- --
09:00 23.2 23.2 8.9 NNO 1.9 -- 7.4 40 1018.2(-0.4/3h) 15 -- -- --
08:00 21.4 21.4 9.9 NNO 1.9 -- 5.6 48 1018.6(-0.3/3h) 16 -- -- --
07:00 18.3 18.3 12.6 NNO 1.9 -- 3.7 69 1018.7(-0.3/3h) 11 -- -- --
06:00 15.4 15.4 11.7 NNO 1.9 -- 3.7 79 1018.7(-0.2/3h) 17 -- -- --
05:00 13.8 13.8 11.3 NNO 1.9 -- 1.9 85 1019.1(-0.1/3h) 12 -- -- --
04:00 12.0 12.0 10.2 NNO 1.9 -- 1.9 89 1019.1(-0.4/3h) 16 -- -- --
03:00 12.3 12.3 10.1 NNO 1.9 -- 3.7 86 1019.1(-0.8/3h) 16 -- -- --
02:00 13.3 13.3 9.9 NNO 1.9 -- 3.7 80 1019.2(-0.8/3h) 20 -- -- --
01:00 13.9 13.9 8.1 NNO 1.9 -- 3.7 68 1019.6(-0.5/3h) 20 -- -- --
00:00 16.1 16.1 7.9 NNO 1.9 -- 14.8 58 1019.8(0.1/3h) 20 -- -- --

1 Coordinated Universal Time. Actuellement il est 07:00 locale et 05:00 UTC.

2 Le vent souffle depuis la direction indiquée vers la direction oposée.

3 Les rafales max. sont disponible 40 min après l'heure du relevé.

4 Pour les stations d'altitude (plus de 600m) le géopotentiel du niveau le plus proche de la pression obligatoire est indiqué.

5 Les stations disposant d'un diffuseur peuvent indiquer "trace". Cela signifie que des précipitations ont touchés le sol mais que la quantité est inférieure à 0.1 mm.

Récapitulatif de la journée
Température [°C] Vent [km/h] Ensoleillement4 [h] Precipitations totale5 [mm] Pression [Hpa]
Min1 Max.2 Moy.3 Max. Min Max.
11.8 27.0 0 14.8 0 h 0 min 0 1012.3 1019.8

1 Température minimale relevée entre 18:00 UTC la veille et 18:00 UTC le jour donné.

2 Température maximale relevée entre 06:00 UTC le jour donné et 06:00 UTC le lendemain.

3 Vent moyen de la journée basé sur les relevés horaires.

4 Ensoleillement en heures relevé entre 06:00 UTC la veille et 06:00 UTC le jour donné.

5 Précipitations totales tombées entre 06:00 UTC la jour donné et 06:00 UTC le lendemain.

Graphiques horaires